daisuke747

Members
  • Content Count

    1
  • Joined

  • Last visited

Community Reputation

0 Neutral

Flight Sim Profile

  • Commercial Member
    Yes
  • Online Flight Organization Membership
    VATSIM

Single Status Update

See all updates by daisuke747

  1. 2011/02/25 18:00 RJTT 251800Z 34029G41KT 9999 SCT060 06/M05 Q1022 NOSIG